Time;durP1;ratioP1;P1;durP2;ratioP2;P2;SDS_P1;SDS_P2;PMS_P1;PMS_P2;Temp;Humidity;BMP_temperature;BMP_pressure;BME280_temperature;BME280_humidity;BME280_pressure;Samples;Min_cycle;Max_cycle;Signal;HPM_P1;HPM_P2
2021/07/29 00:01:15;;;;;;;4.47;1.73;;;18.20;56.90;;;;;;5100830;28;20526;-58
2021/07/29 00:03:43;;;;;;;3.13;0.90;;;18.30;54.70;;;;;;5102630;28;20363;-61
2021/07/29 00:06:17;;;;;;;3.80;1.30;;;18.50;56.30;;;;;;5102062;28;21699;-62
2021/07/29 00:08:44;;;;;;;5.38;1.65;;;18.50;53.80;;;;;;5098912;28;20115;-56
2021/07/29 00:11:18;;;;;;;4.03;1.48;;;18.60;54.30;;;;;;5091334;28;20399;-59
2021/07/29 00:13:46;;;;;;;7.03;2.42;;;18.70;52.50;;;;;;5091177;28;20210;-56
2021/07/29 00:16:13;;;;;;;6.93;2.22;;;18.60;49.70;;;;;;5073213;28;20451;-57
2021/07/29 00:21:26;;;;;;;7.85;2.30;;;18.70;48.90;;;;;;5091267;28;20035;-55
2021/07/29 00:23:53;;;;;;;5.55;2.70;;;18.80;48.10;;;;;;5090608;28;20458;-54
2021/07/29 00:26:20;;;;;;;43.47;2.92;;;18.70;47.90;;;;;;5090726;28;20501;-56
2021/07/29 00:28:47;;;;;;;5.30;1.88;;;18.90;49.10;;;;;;5090325;28;20067;-56
2021/07/29 00:31:15;;;;;;;9.85;2.20;;;18.90;47.90;;;;;;5090280;28;20532;-56
2021/07/29 00:33:43;;;;;;;7.93;1.85;;;19.00;48.20;;;;;;5072587;28;20028;-56
2021/07/29 00:36:21;;;;;;;13.80;2.00;;;19.00;47.70;;;;;;5090728;28;20032;-57
2021/07/29 00:38:49;;;;;;;19.85;2.47;;;19.10;47.30;;;;;;5090626;28;20110;-57
2021/07/29 00:41:16;;;;;;;14.68;2.08;;;19.20;45.90;;;;;;5090234;28;20044;-57
2021/07/29 00:43:44;;;;;;;11.30;2.30;;;19.30;46.60;;;;;;5090918;28;20553;-54
2021/07/29 00:46:14;;;;;;;9.93;1.90;;;19.40;45.50;;;;;;5090877;28;20028;-62
2021/07/29 00:48:43;;;;;;;10.70;2.30;;;19.50;45.00;;;;;;5090391;28;20491;-57
2021/07/29 00:51:11;;;;;;;9.30;2.10;;;19.30;47.00;;;;;;5091342;28;20032;-57
2021/07/29 00:53:39;;;;;;;12.50;3.28;;;19.40;46.40;;;;;;5090706;28;20036;-56
2021/07/29 00:56:06;;;;;;;12.40;2.05;;;19.60;46.80;;;;;;5090764;28;20031;-56
2021/07/29 00:58:34;;;;;;;13.63;2.28;;;19.70;46.90;;;;;;5090468;28;20040;-56
2021/07/29 01:01:01;;;;;;;14.48;2.47;;;19.80;46.90;;;;;;5090179;28;20062;-56
2021/07/29 01:03:29;;;;;;;5.57;1.85;;;19.90;46.10;;;;;;5090387;28;20031;-56
2021/07/29 01:05:56;;;;;;;10.75;2.50;;;20.10;47.30;;;;;;5090491;28;20047;-58
2021/07/29 01:08:24;;;;;;;7.32;2.10;;;20.20;46.30;;;;;;5090400;28;20036;-58
2021/07/29 01:10:51;;;;;;;11.35;1.92;;;20.20;46.20;;;;;;5089849;28;20080;-61
2021/07/29 01:13:18;;;;;;;7.85;1.80;;;20.20;46.90;;;;;;5090345;28;20736;-57
2021/07/29 01:15:46;;;;;;;8.82;2.10;;;20.20;46.90;;;;;;5089806;28;20055;-62
2021/07/29 01:18:13;;;;;;;9.07;2.00;;;20.40;46.40;;;;;;5089955;28;20471;-58
2021/07/29 01:20:41;;;;;;;11.18;2.50;;;20.40;47.70;;;;;;5086569;28;20028;-58
2021/07/29 01:23:08;;;;;;;7.45;2.25;;;20.60;45.10;;;;;;5089680;28;20466;-55
2021/07/29 01:25:35;;;;;;;9.50;1.50;;;20.60;47.60;;;;;;5089684;28;20494;-59
2021/07/29 01:28:03;;;;;;;4.95;1.60;;;20.80;46.50;;;;;;5089409;28;20084;-54
2021/07/29 01:30:30;;;;;;;8.32;2.08;;;20.80;45.30;;;;;;5089843;28;20020;-58
2021/07/29 01:33:01;;;;;;;6.68;1.70;;;20.80;45.00;;;;;;5089388;28;20068;-60
2021/07/29 01:35:28;;;;;;;4.45;1.52;;;20.90;46.00;;;;;;5089584;28;20024;-60
2021/07/29 01:37:56;;;;;;;5.57;1.98;;;20.90;44.30;;;;;;5089448;28;20398;-60
2021/07/29 01:40:23;;;;;;;5.03;1.63;;;21.00;47.20;;;;;;5089201;28;20393;-55
2021/07/29 01:42:50;;;;;;;5.97;1.67;;;21.00;47.20;;;;;;5094176;28;20600;-58
2021/07/29 01:45:18;;;;;;;4.45;1.50;;;21.20;46.60;;;;;;5109488;28;20028;-57
2021/07/29 01:47:45;;;;;;;9.73;2.85;;;21.20;44.90;;;;;;5109453;28;20538;-59
2021/07/29 01:50:13;;;;;;;7.68;1.73;;;21.30;47.90;;;;;;5109119;28;20024;-59
2021/07/29 01:52:40;;;;;;;12.13;1.70;;;21.40;47.10;;;;;;5109376;28;20367;-58
2021/07/29 01:55:08;;;;;;;6.90;1.55;;;21.50;45.50;;;;;;5109432;28;20023;-57
2021/07/29 01:57:37;;;;;;;7.53;1.58;;;21.60;44.00;;;;;;5109502;28;20433;-63
2021/07/29 02:00:06;;;;;;;4.82;1.98;;;21.60;44.40;;;;;;5109453;28;20035;-60
2021/07/29 02:02:33;;;;;;;10.90;1.50;;;21.70;47.20;;;;;;5109605;28;20096;-59
2021/07/29 02:05:00;;;;;;;3.40;1.58;;;21.80;46.20;;;;;;5109287;28;20027;-57
2021/07/29 02:07:28;;;;;;;4.18;1.77;;;21.80;45.10;;;;;;5109580;28;20111;-60
2021/07/29 02:09:55;;;;;;;4.20;1.30;;;21.90;45.80;;;;;;5108914;28;20023;-61
2021/07/29 02:12:22;;;;;;;7.60;3.60;;;21.80;44.30;;;;;;5109445;28;20032;-59
2021/07/29 02:14:50;;;;;;;5.45;1.77;;;21.90;47.00;;;;;;5108734;28;20497;-57
2021/07/29 02:17:21;;;;;;;6.95;1.65;;;21.90;43.80;;;;;;5109543;28;20031;-56
2021/07/29 02:19:48;;;;;;;3.15;1.35;;;21.90;45.90;;;;;;5109167;28;20028;-61
2021/07/29 02:22:16;;;;;;;2.80;1.05;;;22.00;46.70;;;;;;5109061;28;20525;-61
2021/07/29 02:24:44;;;;;;;3.40;1.45;;;22.10;46.50;;;;;;5108611;28;20039;-63
2021/07/29 02:27:11;;;;;;;4.97;1.65;;;22.10;44.60;;;;;;5072490;28;20428;-60
2021/07/29 02:29:39;;;;;;;8.82;2.13;;;22.10;43.30;;;;;;5109024;28;20079;-62
2021/07/29 02:32:06;;;;;;;14.57;1.92;;;22.20;46.10;;;;;;5109523;28;20023;-61
2021/07/29 02:34:34;;;;;;;3.13;1.55;;;22.30;44.90;;;;;;5109230;28;20051;-61
2021/07/29 02:37:01;;;;;;;5.28;1.52;;;22.20;44.10;;;;;;5109547;28;20191;-61
2021/07/29 02:39:29;;;;;;;3.88;1.55;;;22.40;44.80;;;;;;5109342;28;20027;-58
2021/07/29 02:41:56;;;;;;;5.43;1.40;;;22.40;47.60;;;;;;5090996;28;20043;-61
2021/07/29 02:44:24;;;;;;;5.22;1.30;;;22.40;47.50;;;;;;5109699;28;20023;-60
2021/07/29 02:46:51;;;;;;;4.43;1.27;;;22.50;43.30;;;;;;5109435;28;20031;-60
2021/07/29 02:49:18;;;;;;;4.95;1.35;;;22.50;47.10;;;;;;5109054;28;20151;-60
2021/07/29 02:51:46;;;;;;;4.47;1.38;;;22.60;47.00;;;;;;5109231;28;20547;-59
2021/07/29 02:54:13;;;;;;;3.47;1.13;;;22.60;46.00;;;;;;5093578;28;20036;-62
2021/07/29 02:56:40;;;;;;;6.43;1.48;;;22.70;46.10;;;;;;5099973;28;20059;-61
2021/07/29 02:59:08;;;;;;;1.65;0.90;;;22.80;45.30;;;;;;5100915;28;20028;-63
2021/07/29 03:01:35;;;;;;;2.95;1.10;;;22.80;42.80;;;;;;5102749;28;20032;-64
2021/07/29 03:04:02;;;;;;;3.13;1.38;;;22.70;46.20;;;;;;5103575;28;20057;-61
2021/07/29 03:06:30;;;;;;;3.97;1.08;;;22.80;44.80;;;;;;5102009;28;20024;-57
2021/07/29 03:09:00;;;;;;;4.22;1.20;;;22.80;44.10;;;;;;5103894;28;20716;-62
2021/07/29 03:11:28;;;;;;;1.95;0.90;;;22.70;44.10;;;;;;5099793;28;20364;-65
2021/07/29 03:13:55;;;;;;;3.65;0.70;;;22.80;46.60;;;;;;5103567;28;20023;-64
2021/07/29 03:16:23;;;;;;;4.88;0.90;;;22.70;43.40;;;;;;5104855;28;20700;-63
2021/07/29 03:18:50;;;;;;;4.70;1.10;;;22.70;44.00;;;;;;5081779;28;20062;-62
2021/07/29 03:21:17;;;;;;;3.30;1.40;;;22.60;43.40;;;;;;5103253;28;20043;-61
2021/07/29 03:23:45;;;;;;;4.43;1.25;;;22.60;45.50;;;;;;5098720;28;20027;-62
2021/07/29 03:26:12;;;;;;;4.30;1.17;;;22.60;46.30;;;;;;5098326;28;20414;-61
2021/07/29 03:28:42;;;;;;;3.38;1.20;;;22.60;43.40;;;;;;5102087;28;20095;-59
2021/07/29 03:31:09;;;;;;;8.13;1.23;;;22.60;43.40;;;;;;5100235;28;20047;-57
2021/07/29 03:33:38;;;;;;;4.10;1.17;;;22.70;44.30;;;;;;5101172;28;20031;-59
2021/07/29 03:36:05;;;;;;;2.50;1.13;;;22.70;46.50;;;;;;5099998;28;20392;-67
2021/07/29 03:38:33;;;;;;;2.92;1.13;;;22.70;46.80;;;;;;5103795;28;20034;-56
2021/07/29 03:41:00;;;;;;;3.58;1.27;;;22.70;47.40;;;;;;5100315;28;20020;-61
2021/07/29 03:43:27;;;;;;;2.05;0.93;;;22.80;46.90;;;;;;5104667;28;20114;-62
2021/07/29 03:45:55;;;;;;;1.95;1.10;;;22.70;45.80;;;;;;5099536;28;20047;-57
2021/07/29 03:48:22;;;;;;;3.92;1.25;;;22.80;44.00;;;;;;5099065;28;20130;-55
2021/07/29 03:50:49;;;;;;;6.22;1.30;;;22.90;44.90;;;;;;5103347;28;20031;-65
2021/07/29 03:53:17;;;;;;;1.70;0.93;;;23.00;42.70;;;;;;5105590;28;20107;-64
2021/07/29 03:55:46;;;;;;;2.88;0.90;;;23.00;44.10;;;;;;5098980;28;20028;-62
2021/07/29 03:58:13;;;;;;;3.55;1.33;;;23.20;46.50;;;;;;5102435;28;20454;-62
2021/07/29 04:00:40;;;;;;;3.58;1.00;;;23.30;45.90;;;;;;5099727;28;20031;-58
2021/07/29 04:03:08;;;;;;;7.38;1.40;;;23.40;43.40;;;;;;5102151;28;20043;-61
2021/07/29 04:05:35;;;;;;;6.80;1.13;;;23.30;44.90;;;;;;5098539;28;20021;-64
2021/07/29 04:08:05;;;;;;;1.73;0.55;;;23.40;43.40;;;;;;5102276;28;20086;-65
2021/07/29 04:10:32;;;;;;;2.00;0.80;;;23.40;45.60;;;;;;5101763;28;20598;-60
2021/07/29 04:13:00;;;;;;;2.17;0.80;;;23.60;44.50;;;;;;5101715;28;20036;-63
2021/07/29 04:15:27;;;;;;;2.33;1.10;;;23.50;42.10;;;;;;5102125;28;20113;-65
2021/07/29 04:17:54;;;;;;;4.10;0.82;;;23.50;43.20;;;;;;5102160;28;20410;-65
2021/07/29 04:20:22;;;;;;;1.95;0.85;;;23.60;42.90;;;;;;5101310;28;20043;-64
2021/07/29 04:22:49;;;;;;;3.88;0.90;;;23.70;44.60;;;;;;5100842;28;20070;-61
2021/07/29 04:25:16;;;;;;;2.28;0.98;;;23.70;41.30;;;;;;5098227;28;20074;-60
2021/07/29 04:27:44;;;;;;;2.95;0.95;;;23.50;43.40;;;;;;5100121;28;20050;-66
2021/07/29 04:30:11;;;;;;;2.45;0.82;;;23.50;42.10;;;;;;5099455;28;20846;-61
2021/07/29 04:32:39;;;;;;;2.63;0.93;;;23.70;41.40;;;;;;5101078;28;20118;-59
2021/07/29 04:35:07;;;;;;;1.42;0.70;;;23.50;43.20;;;;;;5111375;28;20066;-61
2021/07/29 04:37:34;;;;;;;2.13;0.93;;;23.70;43.80;;;;;;5110270;28;20135;-61
2021/07/29 04:40:02;;;;;;;3.13;0.93;;;23.70;44.70;;;;;;5109904;28;20027;-60
2021/07/29 04:42:33;;;;;;;1.25;0.80;;;23.70;43.70;;;;;;5110338;28;20036;-59
2021/07/29 04:45:00;;;;;;;2.33;0.90;;;23.80;44.00;;;;;;5108473;28;20046;-59
2021/07/29 04:47:27;;;;;;;2.35;0.88;;;23.70;44.20;;;;;;5110286;28;20024;-63
2021/07/29 04:49:55;;;;;;;2.13;0.73;;;23.60;42.70;;;;;;5110507;28;20028;-64
2021/07/29 04:52:22;;;;;;;2.92;0.80;;;23.70;42.40;;;;;;5110310;28;20103;-63
2021/07/29 04:54:49;;;;;;;4.75;0.90;;;23.70;41.20;;;;;;5110676;28;20027;-63
2021/07/29 04:57:16;;;;;;;1.75;0.80;;;23.60;44.30;;;;;;5111316;28;20110;-62
2021/07/29 04:59:44;;;;;;;2.63;0.80;;;23.50;43.90;;;;;;5111095;28;20023;-60
2021/07/29 05:02:11;;;;;;;1.67;0.70;;;23.50;45.80;;;;;;5110489;28;20034;-64
2021/07/29 05:04:38;;;;;;;2.45;1.00;;;23.50;45.40;;;;;;5111064;28;20047;-58
2021/07/29 05:07:06;;;;;;;1.92;0.85;;;23.60;46.10;;;;;;5111141;28;20052;-63
2021/07/29 05:09:33;;;;;;;3.55;1.20;;;23.60;44.80;;;;;;5111238;28;20422;-62
2021/07/29 05:12:01;;;;;;;2.33;0.95;;;23.50;42.90;;;;;;5111164;28;20028;-64
2021/07/29 05:14:28;;;;;;;2.58;1.08;;;23.40;45.50;;;;;;5110658;28;20592;-66
2021/07/29 05:17:04;;;;;;;3.00;1.25;;;23.40;46.30;;;;;;5110467;28;20050;-64
2021/07/29 05:19:32;;;;;;;2.55;0.80;;;23.40;43.10;;;;;;5110523;28;20023;-63
2021/07/29 05:21:59;;;;;;;1.73;0.80;;;23.40;42.60;;;;;;5110487;28;20057;-58
2021/07/29 05:24:26;;;;;;;1.55;0.70;;;23.40;42.60;;;;;;5110328;28;20032;-61
2021/07/29 05:26:57;;;;;;;0.60;0.40;;;23.40;45.70;;;;;;5109934;28;20031;-60
2021/07/29 05:29:24;;;;;;;2.20;0.75;;;23.40;43.00;;;;;;5110388;28;20077;-63
2021/07/29 05:31:51;;;;;;;4.13;1.08;;;23.40;45.70;;;;;;5109222;28;20115;-59
2021/07/29 05:34:19;;;;;;;1.05;0.60;;;23.50;44.40;;;;;;5110275;28;20692;-63
2021/07/29 05:36:46;;;;;;;2.83;0.90;;;23.40;45.80;;;;;;5110197;28;20028;-57
2021/07/29 05:39:13;;;;;;;1.85;0.73;;;23.40;45.60;;;;;;5109661;28;20396;-64
2021/07/29 05:41:41;;;;;;;1.85;0.60;;;23.40;46.40;;;;;;5110192;28;20032;-62
2021/07/29 05:44:12;;;;;;;1.70;0.90;;;23.40;45.00;;;;;;5109890;28;20103;-64
2021/07/29 05:46:40;;;;;;;1.55;0.75;;;23.40;43.60;;;;;;5091769;28;20032;-62
2021/07/29 05:49:07;;;;;;;1.70;0.93;;;23.40;45.40;;;;;;5109791;28;20035;-63
2021/07/29 05:51:34;;;;;;;1.83;0.80;;;23.30;45.10;;;;;;5109064;28;20035;-60
2021/07/29 05:54:02;;;;;;;1.80;0.75;;;23.30;44.80;;;;;;5109597;28;20043;-59
2021/07/29 05:56:29;;;;;;;1.48;0.60;;;23.20;44.50;;;;;;5109576;28;20447;-59
2021/07/29 05:58:56;;;;;;;2.65;0.93;;;23.00;44.30;;;;;;5109671;28;20199;-62
2021/07/29 06:01:25;;;;;;;2.05;0.93;;;22.80;45.00;;;;;;5091144;28;20390;-60
2021/07/29 06:03:52;;;;;;;4.32;1.10;;;22.60;42.60;;;;;;5109618;28;20031;-54
2021/07/29 06:06:20;;;;;;;0.90;0.57;;;22.40;44.50;;;;;;5091220;28;20031;-59
2021/07/29 06:08:53;;;;;;;2.85;1.13;;;22.10;46.30;;;;;;5109418;28;20032;-56
2021/07/29 06:11:20;;;;;;;2.75;0.80;;;21.80;46.30;;;;;;5109336;28;20470;-59
2021/07/29 06:13:48;;;;;;;2.53;1.00;;;21.60;46.70;;;;;;5109779;28;20060;-60
2021/07/29 06:16:17;;;;;;;3.47;1.35;;;21.40;45.90;;;;;;5109302;28;20043;-58
2021/07/29 06:18:53;;;;;;;2.70;1.10;;;21.10;45.80;;;;;;5109472;28;20055;-57
2021/07/29 06:21:21;;;;;;;1.63;0.82;;;21.00;49.10;;;;;;5109680;28;20023;-59
2021/07/29 06:23:49;;;;;;;1.55;0.70;;;20.80;49.60;;;;;;5109340;28;20023;-58
2021/07/29 06:26:16;;;;;;;3.92;1.23;;;20.60;50.40;;;;;;5109366;28;20023;-60
2021/07/29 06:28:43;;;;;;;2.05;0.88;;;20.50;47.40;;;;;;5108799;28;20070;-58
2021/07/29 06:31:11;;;;;;;2.35;1.27;;;20.30;48.50;;;;;;5113281;28;20382;-57
2021/07/29 06:33:38;;;;;;;2.78;0.90;;;20.20;50.40;;;;;;5113403;28;20507;-58
2021/07/29 06:36:06;;;;;;;1.63;0.98;;;20.00;48.80;;;;;;5113417;28;20038;-60
2021/07/29 06:38:33;;;;;;;3.13;0.95;;;19.90;49.30;;;;;;5112096;28;20030;-56
2021/07/29 06:41:06;;;;;;;1.67;0.77;;;19.80;50.60;;;;;;5113208;28;20051;-58
2021/07/29 06:43:34;;;;;;;3.88;1.30;;;19.70;51.20;;;;;;5112902;28;20104;-59
2021/07/29 06:46:08;;;;;;;3.15;1.00;;;19.70;53.60;;;;;;5113435;28;20441;-60
2021/07/29 06:48:37;;;;;;;2.40;0.73;;;19.60;51.50;;;;;;5094727;28;20028;-61
2021/07/29 06:51:05;;;;;;;1.23;0.80;;;19.50;53.00;;;;;;5082402;28;20169;-67
2021/07/29 06:53:35;;;;;;;1.77;0.65;;;19.40;51.80;;;;;;5099641;28;20031;-61
2021/07/29 06:56:04;;;;;;;3.05;0.73;;;19.40;53.20;;;;;;5100546;28;20081;-59
2021/07/29 06:58:31;;;;;;;1.20;0.73;;;19.40;51.10;;;;;;5104567;28;20042;-58
2021/07/29 07:01:06;;;;;;;3.83;1.00;;;19.30;52.40;;;;;;5101670;28;20050;-65
2021/07/29 07:03:34;;;;;;;2.35;0.90;;;19.20;53.20;;;;;;5099831;28;20047;-67
2021/07/29 07:06:03;;;;;;;2.42;1.02;;;19.10;52.40;;;;;;5100189;28;20437;-67
2021/07/29 07:08:30;;;;;;;2.83;0.90;;;19.10;51.10;;;;;;5099223;28;20118;-65
2021/07/29 07:10:58;;;;;;;2.03;0.98;;;19.10;53.00;;;;;;5099335;28;20127;-65
2021/07/29 07:13:25;;;;;;;1.90;0.95;;;19.00;53.30;;;;;;5103456;28;20474;-65
2021/07/29 07:15:53;;;;;;;2.90;0.70;;;19.00;53.20;;;;;;5100599;28;20047;-64
2021/07/29 07:18:20;;;;;;;2.42;0.80;;;19.00;53.70;;;;;;5103157;28;20020;-64
2021/07/29 07:20:48;;;;;;;2.00;0.90;;;18.90;53.60;;;;;;5099882;28;20494;-64
2021/07/29 07:23:15;;;;;;;1.25;0.65;;;18.90;54.10;;;;;;5102081;28;20043;-66
2021/07/29 07:25:43;;;;;;;2.72;1.08;;;18.80;53.30;;;;;;5101692;28;20020;-57
2021/07/29 07:28:10;;;;;;;1.30;0.47;;;18.90;53.50;;;;;;5102643;28;20086;-61
2021/07/29 07:30:40;;;;;;;1.73;0.88;;;18.80;54.60;;;;;;5101133;28;20074;-61
2021/07/29 07:33:07;;;;;;;2.70;1.38;;;18.70;53.30;;;;;;5102336;28;20027;-62
2021/07/29 07:35:35;;;;;;;3.25;1.27;;;18.70;52.60;;;;;;5104489;28;20031;-54
2021/07/29 07:38:02;;;;;;;2.17;1.35;;;18.70;52.90;;;;;;5103311;28;20061;-57
2021/07/29 07:40:29;;;;;;;3.50;1.30;;;18.60;53.40;;;;;;5101214;28;20043;-61
2021/07/29 07:42:57;;;;;;;2.38;1.13;;;18.60;52.00;;;;;;5103321;28;20084;-63
2021/07/29 07:45:25;;;;;;;4.80;1.00;;;18.60;53.90;;;;;;5094712;28;20035;-56
2021/07/29 07:47:53;;;;;;;1.45;0.80;;;18.50;53.30;;;;;;5096859;28;20043;-54
2021/07/29 07:50:20;;;;;;;1.92;0.98;;;18.40;54.60;;;;;;5106977;28;20024;-59
2021/07/29 07:52:48;;;;;;;2.92;1.00;;;18.40;54.80;;;;;;5081053;28;20023;-57
2021/07/29 07:55:16;;;;;;;2.45;0.70;;;18.30;54.60;;;;;;5102824;28;20373;-56
2021/07/29 07:57:43;;;;;;;3.85;1.17;;;18.30;54.30;;;;;;5102358;28;20034;-58
2021/07/29 08:00:12;;;;;;;2.80;1.08;;;18.30;54.20;;;;;;5098820;28;20046;-58
2021/07/29 08:02:39;;;;;;;2.22;0.90;;;18.30;54.30;;;;;;5102515;28;20046;-62
2021/07/29 08:05:07;;;;;;;2.33;1.00;;;18.20;54.70;;;;;;5110646;28;20108;-57
2021/07/29 08:07:34;;;;;;;1.48;1.00;;;18.20;54.70;;;;;;5110790;28;20024;-60
2021/07/29 08:10:02;;;;;;;2.33;0.98;;;18.10;55.40;;;;;;5110605;28;20019;-58
2021/07/29 08:12:30;;;;;;;3.63;1.40;;;18.10;55.50;;;;;;5104095;28;20125;-58
2021/07/29 08:14:57;;;;;;;2.47;1.08;;;18.10;55.00;;;;;;5108651;28;20040;-58
2021/07/29 08:17:24;;;;;;;2.60;1.10;;;18.10;55.90;;;;;;5109041;28;20024;-59
2021/07/29 08:19:52;;;;;;;3.10;1.13;;;18.00;55.70;;;;;;5083140;28;20455;-61
2021/07/29 08:22:19;;;;;;;8.77;1.50;;;18.00;54.20;;;;;;5101772;28;20035;-63
2021/07/29 08:24:46;;;;;;;1.83;0.90;;;17.90;55.60;;;;;;5097134;28;20036;-60
2021/07/29 08:27:14;;;;;;;5.00;1.08;;;18.00;56.00;;;;;;5101692;28;20474;-63
2021/07/29 08:29:41;;;;;;;2.90;1.23;;;17.90;55.90;;;;;;5099073;28;20446;-62
2021/07/29 08:32:10;;;;;;;3.38;1.10;;;18.00;55.60;;;;;;5100700;28;20038;-60
2021/07/29 08:34:37;;;;;;;3.30;0.98;;;18.00;55.80;;;;;;5100245;28;20040;-64
2021/07/29 08:37:05;;;;;;;4.18;1.17;;;18.00;55.20;;;;;;5100082;28;20027;-64
2021/07/29 08:39:32;;;;;;;2.83;1.20;;;17.90;55.70;;;;;;5102695;28;20027;-61
2021/07/29 08:42:00;;;;;;;1.92;0.93;;;17.90;55.60;;;;;;5091508;28;20035;-60
2021/07/29 08:44:27;;;;;;;1.33;0.60;;;17.90;55.30;;;;;;5092763;28;20106;-61
2021/07/29 08:46:55;;;;;;;1.83;0.75;;;17.90;56.00;;;;;;5093108;28;20043;-64
2021/07/29 08:49:28;;;;;;;3.28;0.82;;;17.90;56.10;;;;;;5093133;28;20240;-63
2021/07/29 08:51:55;;;;;;;2.70;1.00;;;17.80;55.80;;;;;;5087380;28;20024;-57
2021/07/29 08:54:23;;;;;;;3.55;1.20;;;17.80;56.10;;;;;;5094841;28;20043;-60
2021/07/29 08:56:51;;;;;;;3.08;1.65;;;17.80;55.60;;;;;;5097941;28;20428;-57
2021/07/29 08:59:18;;;;;;;1.92;1.20;;;17.80;55.90;;;;;;5089301;28;20155;-61
2021/07/29 09:01:53;;;;;;;3.33;1.23;;;17.80;56.20;;;;;;5092005;28;20031;-58
2021/07/29 09:04:21;;;;;;;2.67;1.20;;;17.80;56.00;;;;;;5089468;28;20050;-52
2021/07/29 09:07:00;;;;;;;3.88;1.65;;;17.80;56.10;;;;;;5091166;28;20039;-59
2021/07/29 09:09:49;;;;;;;1.92;1.08;;;17.80;55.70;;;;;;5095588;28;20064;-59
2021/07/29 09:12:17;;;;;;;2.25;1.08;;;17.70;56.10;;;;;;5090757;28;20031;-60
2021/07/29 09:14:46;;;;;;;3.22;1.40;;;17.70;56.10;;;;;;5087949;28;20031;-62
2021/07/29 09:17:17;;;;;;;5.20;1.33;;;17.70;56.00;;;;;;5096292;28;20437;-60
2021/07/29 09:19:56;;;;;;;2.75;1.38;;;17.70;55.80;;;;;;5089435;28;20478;-58
2021/07/29 09:22:30;;;;;;;2.38;1.20;;;17.60;56.10;;;;;;5082579;28;20273;-55
2021/07/29 09:24:59;;;;;;;1.58;1.08;;;17.70;56.30;;;;;;5091831;28;20036;-64
2021/07/29 09:27:39;;;;;;;1.90;1.40;;;17.60;56.00;;;;;;5085290;28;20081;-60
2021/07/29 09:30:18;;;;;;;3.50;1.38;;;17.60;56.20;;;;;;5086516;28;20032;-58
2021/07/29 09:32:53;;;;;;;3.03;1.17;;;17.50;55.90;;;;;;5078557;28;20038;-57
2021/07/29 09:35:42;;;;;;;2.70;1.20;;;17.50;56.30;;;;;;5093548;28;20059;-60
2021/07/29 09:38:13;;;;;;;5.32;1.80;;;17.40;56.20;;;;;;5095362;28;20480;-59
2021/07/29 09:40:59;;;;;;;6.82;1.67;;;17.40;56.80;;;;;;5089438;28;20154;-58
2021/07/29 09:43:32;;;;;;;4.05;1.20;;;17.30;56.90;;;;;;5092577;28;20044;-59
2021/07/29 09:46:04;;;;;;;5.22;1.67;;;17.30;57.20;;;;;;5099432;28;20028;-59
2021/07/29 09:48:32;;;;;;;5.90;1.65;;;17.30;57.10;;;;;;5074289;28;20130;-60
2021/07/29 09:51:01;;;;;;;2.72;1.60;;;17.30;57.70;;;;;;5092861;28;20028;-57
2021/07/29 09:53:35;;;;;;;5.53;1.40;;;17.20;57.90;;;;;;5098257;28;20032;-57
2021/07/29 09:56:08;;;;;;;4.93;1.70;;;17.30;57.90;;;;;;5099952;28;20035;-58
2021/07/29 09:58:40;;;;;;;4.07;1.50;;;17.20;57.90;;;;;;5094167;28;20024;-61
2021/07/29 10:01:10;;;;;;;15.85;1.95;;;17.20;58.20;;;;;;5096759;28;20085;-59
2021/07/29 10:03:43;;;;;;;6.18;1.35;;;17.20;58.50;;;;;;5093701;28;20526;-62
2021/07/29 10:06:20;;;;;;;2.40;1.30;;;17.20;58.70;;;;;;5073490;28;20028;-61
2021/07/29 10:09:10;;;;;;;4.63;1.30;;;17.20;58.70;;;;;;5084842;28;21265;-59
2021/07/29 10:11:43;;;;;;;6.90;1.40;;;17.20;60.10;;;;;;5087862;28;20023;-58
2021/07/29 10:14:14;;;;;;;4.35;1.23;;;17.20;60.20;;;;;;5066143;28;20097;-61
2021/07/29 10:16:46;;;;;;;5.07;1.55;;;17.20;60.80;;;;;;5074486;28;20027;-62
2021/07/29 10:19:15;;;;;;;6.00;1.50;;;17.20;61.20;;;;;;5089026;28;20028;-60
2021/07/29 10:21:44;;;;;;;4.20;1.40;;;17.20;60.50;;;;;;5073524;28;20323;-55
2021/07/29 10:24:13;;;;;;;9.07;1.60;;;17.20;60.20;;;;;;5091303;28;20116;-54
2021/07/29 10:27:02;;;;;;;4.63;1.65;;;17.20;60.40;;;;;;5076954;28;20031;-57
2021/07/29 10:29:30;;;;;;;2.95;1.65;;;17.20;59.50;;;;;;5095903;28;20097;-55
2021/07/29 10:32:08;;;;;;;2.55;1.20;;;17.10;60.30;;;;;;5100147;28;20024;-52
2021/07/29 10:34:38;;;;;;;3.60;1.58;;;17.10;60.20;;;;;;5094892;28;20036;-56
2021/07/29 10:37:08;;;;;;;7.82;1.63;;;17.10;60.20;;;;;;5095556;28;20554;-63
2021/07/29 10:40:04;;;;;;;3.42;1.40;;;17.10;61.70;;;;;;5090563;28;21194;-63
2021/07/29 10:42:31;;;;;;;2.80;1.60;;;17.10;61.60;;;;;;5072424;28;20171;-55
2021/07/29 10:44:59;;;;;;;7.53;1.77;;;17.10;61.40;;;;;;5100044;28;20107;-60
2021/07/29 10:47:43;;;;;;;4.30;1.55;;;17.10;61.70;;;;;;5091307;28;20036;-61
2021/07/29 10:50:16;;;;;;;3.75;1.55;;;17.10;61.40;;;;;;5093620;28;20040;-62
2021/07/29 10:52:46;;;;;;;7.78;2.10;;;17.10;61.40;;;;;;5087255;28;20035;-62
2021/07/29 10:55:13;;;;;;;10.18;2.03;;;17.00;61.30;;;;;;5091899;28;20119;-63
2021/07/29 10:57:56;;;;;;;5.10;2.28;;;17.00;61.20;;;;;;5091756;28;20037;-61
2021/07/29 11:00:23;;;;;;;5.25;1.77;;;17.00;61.10;;;;;;5091203;28;20031;-60
2021/07/29 11:02:52;;;;;;;4.40;1.95;;;17.00;61.20;;;;;;5077881;28;20036;-61
2021/07/29 11:05:20;;;;;;;7.20;1.90;;;17.00;60.90;;;;;;5080906;28;20028;-59
2021/07/29 11:07:50;;;;;;;9.23;1.73;;;17.00;61.00;;;;;;5095004;28;20028;-59
2021/07/29 11:10:23;;;;;;;5.72;2.05;;;16.90;61.00;;;;;;5091319;28;20299;-57
2021/07/29 11:12:51;;;;;;;4.30;1.83;;;16.90;60.90;;;;;;5090484;28;20113;-53
2021/07/29 11:15:18;;;;;;;3.72;1.88;;;16.90;60.90;;;;;;5091692;28;20135;-55
2021/07/29 11:17:46;;;;;;;4.95;1.90;;;16.80;60.90;;;;;;5094760;28;20147;-56
2021/07/29 11:20:13;;;;;;;9.30;2.00;;;16.80;60.50;;;;;;5075013;28;20440;-52
2021/07/29 11:22:46;;;;;;;4.53;1.75;;;16.80;60.50;;;;;;5095425;28;20465;-52
2021/07/29 11:25:15;;;;;;;5.38;2.08;;;16.80;60.30;;;;;;5099230;28;20490;-57
2021/07/29 11:27:43;;;;;;;3.25;1.98;;;16.80;60.00;;;;;;5096855;28;20145;-55
2021/07/29 11:30:12;;;;;;;5.40;1.90;;;16.80;60.30;;;;;;5097332;28;20047;-59
2021/07/29 11:32:45;;;;;;;4.32;1.88;;;16.80;60.10;;;;;;5103841;28;20030;-54
2021/07/29 11:35:15;;;;;;;3.35;1.73;;;16.80;60.30;;;;;;5079017;28;20036;-51
2021/07/29 11:37:47;;;;;;;4.85;2.13;;;16.80;60.00;;;;;;5095809;28;20141;-57
2021/07/29 11:40:25;;;;;;;4.43;1.88;;;16.70;59.90;;;;;;5096209;28;20044;-58
2021/07/29 11:42:54;;;;;;;5.57;2.15;;;16.70;59.90;;;;;;5076063;28;20036;-64
2021/07/29 11:45:33;;;;;;;2.70;1.55;;;16.70;60.00;;;;;;5098317;28;20023;-60
2021/07/29 11:48:01;;;;;;;7.55;2.22;;;16.70;59.90;;;;;;5095148;28;20111;-63
2021/07/29 11:50:42;;;;;;;4.22;1.80;;;16.70;59.80;;;;;;5098629;28;20027;-57
2021/07/29 11:53:10;;;;;;;7.35;1.95;;;16.60;60.30;;;;;;5094328;28;20032;-59
2021/07/29 11:55:39;;;;;;;4.28;2.10;;;16.70;59.70;;;;;;5099277;28;20445;-56
2021/07/29 11:58:11;;;;;;;3.45;1.90;;;16.60;59.70;;;;;;5101354;28;20036;-61
2021/07/29 12:00:40;;;;;;;8.32;1.92;;;16.70;59.70;;;;;;5094558;28;20058;-61
2021/07/29 12:03:27;;;;;;;3.25;1.80;;;16.60;59.60;;;;;;5099380;28;20042;-61
2021/07/29 12:05:58;;;;;;;7.40;2.38;;;16.60;59.50;;;;;;5099339;28;20050;-60
2021/07/29 12:08:27;;;;;;;5.10;2.70;;;16.60;60.20;;;;;;5094347;28;20036;-60
2021/07/29 12:10:58;;;;;;;4.20;2.25;;;16.60;59.40;;;;;;5097708;28;20390;-56
2021/07/29 12:13:28;;;;;;;6.80;2.75;;;16.60;59.60;;;;;;5097717;28;20020;-59
2021/07/29 12:15:58;;;;;;;5.35;1.98;;;16.60;59.60;;;;;;5095012;28;20041;-60
2021/07/29 12:18:26;;;;;;;4.57;2.38;;;16.60;59.40;;;;;;5094369;28;20139;-59
2021/07/29 12:20:55;;;;;;;6.00;2.42;;;16.60;59.50;;;;;;5092466;28;20035;-64
2021/07/29 12:23:26;;;;;;;4.40;1.80;;;16.60;59.60;;;;;;5095593;28;20036;-56
2021/07/29 12:25:56;;;;;;;7.13;2.80;;;16.50;59.60;;;;;;5097222;28;20131;-61
2021/07/29 12:28:45;;;;;;;6.15;2.35;;;16.50;59.60;;;;;;5081942;28;20047;-61
2021/07/29 12:31:25;;;;;;;4.45;1.80;;;16.50;59.50;;;;;;5107210;28;20028;-59
2021/07/29 12:33:57;;;;;;;3.22;2.00;;;16.40;59.40;;;;;;5106990;28;20399;-61
2021/07/29 12:36:41;;;;;;;3.00;1.52;;;16.40;59.40;;;;;;5088155;28;20020;-61
2021/07/29 12:39:09;;;;;;;4.28;2.08;;;16.40;59.30;;;;;;5106928;28;20351;-62
2021/07/29 12:41:38;;;;;;;5.07;2.22;;;16.40;59.40;;;;;;5106542;28;20027;-61
2021/07/29 12:44:21;;;;;;;2.72;1.80;;;16.30;59.50;;;;;;5107284;28;20035;-60
2021/07/29 12:46:48;;;;;;;;;;;16.30;59.60;;;;;;5108000;28;20185;-61
2021/07/29 12:49:18;;;;;;;5.70;2.55;;;16.20;59.60;;;;;;5106733;28;19914;-61
2021/07/29 12:51:47;;;;;;;4.95;2.10;;;16.30;59.60;;;;;;5106960;28;20088;-61
2021/07/29 12:54:19;;;;;;;4.50;2.28;;;16.20;59.70;;;;;;5106986;28;20081;-61
2021/07/29 12:57:10;;;;;;;6.35;2.13;;;16.20;59.70;;;;;;5106539;28;20020;-61
2021/07/29 12:59:37;;;;;;;5.57;2.35;;;16.20;59.60;;;;;;5106195;28;20062;-59